createdAt,value
2022-08-07T00:01:43.952Z,99280.66
2022-08-07T00:04:06.803Z,99276.94
2022-08-07T00:06:51.048Z,99274.94
2022-08-07T00:09:22.377Z,99278.16
2022-08-07T00:11:55.351Z,99289.22
2022-08-07T00:14:30.232Z,99286.81
2022-08-07T00:17:07.597Z,99285.47
2022-08-07T00:20:01.103Z,99277.59
2022-08-07T00:22:24.637Z,99277.97
2022-08-07T00:25:11.046Z,99285.97
2022-08-07T00:27:53.485Z,99277.94
2022-08-07T00:30:26.983Z,99286.66
2022-08-07T00:32:56.889Z,99282.31
2022-08-07T00:35:26.159Z,99283.94
2022-08-07T00:37:54.516Z,99290.16
2022-08-07T00:40:39.060Z,99296.06
2022-08-07T00:43:12.857Z,99294.09
2022-08-07T00:45:59.649Z,99292.19
2022-08-07T00:48:31.761Z,99296.00
2022-08-07T00:51:02.567Z,99296.84
2022-08-07T00:53:39.010Z,99288.66
2022-08-07T00:56:18.207Z,99289.13
2022-08-07T00:58:46.826Z,99299.19
2022-08-07T01:01:16.303Z,99303.31
2022-08-07T01:03:56.181Z,99295.66
2022-08-07T01:06:28.698Z,99291.31
2022-08-07T01:08:58.549Z,99290.75
2022-08-07T01:12:10.005Z,99291.94
2022-08-07T01:14:21.084Z,99281.81
2022-08-07T01:16:52.874Z,99281.28
2022-08-07T01:19:22.738Z,99280.81
2022-08-07T01:21:55.198Z,99282.56
2022-08-07T01:24:29.432Z,99274.50
2022-08-07T01:27:00.651Z,99278.00
2022-08-07T01:29:33.771Z,99280.59
2022-08-07T01:32:05.387Z,99274.53
2022-08-07T01:34:47.415Z,99282.19
2022-08-07T01:37:17.450Z,99272.44
2022-08-07T01:39:48.487Z,99286.16
2022-08-07T01:42:37.586Z,99275.59
2022-08-07T01:45:17.809Z,99278.66
2022-08-07T01:48:21.629Z,99282.13
2022-08-07T01:50:38.241Z,99286.03
2022-08-07T01:53:11.811Z,99281.44
2022-08-07T01:55:56.847Z,99276.22
2022-08-07T01:58:33.301Z,99264.25
2022-08-07T02:01:09.900Z,99275.38
2022-08-07T02:04:01.349Z,99270.13
2022-08-07T02:06:32.686Z,99269.25
2022-08-07T02:09:06.511Z,99253.13
2022-08-07T02:12:02.654Z,99250.97
2022-08-07T02:14:36.666Z,99265.19
2022-08-07T02:17:16.593Z,99250.94
2022-08-07T02:20:07.771Z,99252.81
2022-08-07T02:22:41.457Z,99254.34
2022-08-07T02:25:17.285Z,99251.69
2022-08-07T02:27:56.065Z,99247.47
2022-08-07T02:30:24.669Z,99250.91
2022-08-07T02:33:03.842Z,99241.09
2022-08-07T02:36:26.876Z,99253.34
2022-08-07T02:38:35.693Z,99245.59
2022-08-07T02:41:05.877Z,99241.13
2022-08-07T02:43:38.919Z,99250.16
2022-08-07T02:46:09.195Z,99259.09
2022-08-07T02:48:39.104Z,99257.47
2022-08-07T02:51:41.691Z,99253.56
2022-08-07T02:54:09.605Z,99255.31
2022-08-07T02:56:39.710Z,99258.78
2022-08-07T02:59:11.067Z,99253.53
2022-08-07T03:01:41.455Z,99258.00
2022-08-07T03:04:16.300Z,99258.84
2022-08-07T03:06:48.338Z,99259.63
2022-08-07T03:09:43.896Z,99259.19
2022-08-07T03:12:14.222Z,99267.06
2022-08-07T03:14:56.332Z,99260.22
2022-08-07T03:17:24.616Z,99261.06
2022-08-07T03:19:56.290Z,99262.84
2022-08-07T03:22:32.978Z,99263.75
2022-08-07T03:25:01.324Z,99265.66
2022-08-07T03:27:58.907Z,99264.34
2022-08-07T03:30:25.221Z,99264.34
2022-08-07T03:32:59.352Z,99262.44
2022-08-07T03:35:43.407Z,99262.94
2022-08-07T03:38:21.363Z,99265.28
2022-08-07T03:41:01.349Z,99262.88
2022-08-07T03:43:32.371Z,99258.19
2022-08-07T03:46:04.082Z,99259.94
2022-08-07T03:48:45.531Z,99244.44
2022-08-07T03:51:46.780Z,99246.63
2022-08-07T03:54:35.182Z,99251.78
2022-08-07T03:57:07.469Z,99251.88
2022-08-07T03:59:36.928Z,99247.28
2022-08-07T04:02:14.812Z,99257.06
2022-08-07T04:04:43.031Z,99251.41
2022-08-07T04:07:17.409Z,99252.28
2022-08-07T04:09:50.210Z,99247.47
2022-08-07T04:12:28.961Z,99257.06
2022-08-07T04:15:00.489Z,99253.13
2022-08-07T04:18:56.261Z,99257.06
2022-08-07T04:20:21.816Z,99255.13
2022-08-07T04:22:53.748Z,99256.97
2022-08-07T04:25:30.370Z,99266.31
2022-08-07T04:28:05.109Z,99273.09
2022-08-07T04:30:55.634Z,99273.66
2022-08-07T04:33:28.379Z,99282.38
2022-08-07T04:35:56.837Z,99282.69
2022-08-07T04:38:28.775Z,99283.72
2022-08-07T04:40:58.035Z,99277.59
2022-08-07T04:44:09.907Z,99279.56
2022-08-07T04:47:08.182Z,99283.06
2022-08-07T04:50:03.924Z,99296.81
2022-08-07T04:52:54.454Z,99291.47
2022-08-07T04:58:11.029Z,99287.25
2022-08-07T04:59:17.020Z,99288.31
2022-08-07T05:01:43.214Z,99288.97
2022-08-07T05:04:36.142Z,99293.97
2022-08-07T05:07:36.510Z,99287.34
2022-08-07T05:10:25.182Z,99288.44
2022-08-07T05:13:10.024Z,99288.13
2022-08-07T05:15:51.263Z,99283.22
2022-08-07T05:18:23.896Z,99288.81
2022-08-07T05:20:55.087Z,99292.84
2022-08-07T05:23:39.091Z,99299.69
2022-08-07T05:26:18.798Z,99286.19
2022-08-07T05:28:57.365Z,99298.19
2022-08-07T05:31:35.261Z,99301.25
2022-08-07T05:34:11.032Z,99303.22
2022-08-07T05:36:43.799Z,99299.19
2022-08-07T05:40:13.746Z,99306.16
2022-08-07T05:42:33.233Z,99306.16
2022-08-07T05:45:26.344Z,99305.69
2022-08-07T05:48:01.609Z,99304.34
2022-08-07T05:50:32.010Z,99310.03
2022-08-07T05:53:01.978Z,99300.16
2022-08-07T05:56:03.869Z,99310.19
2022-08-07T05:58:36.133Z,99312.97
2022-08-07T06:01:10.492Z,99316.69
2022-08-07T06:03:57.189Z,99312.50
2022-08-07T06:06:34.619Z,99310.94
2022-08-07T06:09:05.714Z,99306.00
2022-08-07T06:11:39.213Z,99312.22
2022-08-07T06:14:11.446Z,99315.53
2022-08-07T06:16:45.224Z,99312.31
2022-08-07T06:19:58.112Z,99316.06
2022-08-07T06:22:15.858Z,99312.34
2022-08-07T06:25:01.223Z,99303.44
2022-08-07T06:27:44.415Z,99313.94
2022-08-07T06:30:35.273Z,99306.50
2022-08-07T06:33:15.731Z,99300.91
2022-08-07T06:36:06.130Z,99303.00
2022-08-07T06:38:33.330Z,99301.38
2022-08-07T06:41:06.988Z,99303.00
2022-08-07T06:43:40.091Z,99301.38
2022-08-07T06:46:15.693Z,99301.47
2022-08-07T06:49:00.839Z,99301.19
2022-08-07T06:51:34.943Z,99298.66
2022-08-07T06:55:28.312Z,99301.03
2022-08-07T06:56:56.461Z,99298.97
2022-08-07T07:00:14.843Z,99299.88
2022-08-07T07:02:27.081Z,99301.88
2022-08-07T07:05:14.920Z,99299.97
2022-08-07T07:08:03.907Z,99295.13
2022-08-07T07:10:35.625Z,99293.72
2022-08-07T07:13:55.680Z,99301.78
2022-08-07T07:16:19.691Z,99303.13
2022-08-07T07:18:56.073Z,99300.59
2022-08-07T07:21:40.106Z,99301.47
2022-08-07T07:24:17.394Z,99301.69
2022-08-07T07:26:51.718Z,99301.69
2022-08-07T07:29:39.573Z,99307.84
2022-08-07T07:32:14.062Z,99291.97
2022-08-07T07:34:46.161Z,99289.69
2022-08-07T07:37:56.150Z,99288.22
2022-08-07T07:40:15.168Z,99294.31
2022-08-07T07:42:51.391Z,99286.19
2022-08-07T07:46:37.704Z,99292.44
2022-08-07T07:48:34.796Z,99283.84
2022-08-07T07:51:07.918Z,99293.41
2022-08-07T07:53:51.368Z,99287.16
2022-08-07T07:56:30.058Z,99276.88
2022-08-07T07:59:08.170Z,99271.84
2022-08-07T08:02:02.666Z,99276.34
2022-08-07T08:04:28.735Z,99278.06
2022-08-07T08:06:56.495Z,99275.16
2022-08-07T08:09:29.846Z,99267.69
2022-08-07T08:12:03.082Z,99264.50
2022-08-07T08:14:36.548Z,99273.50
2022-08-07T08:17:56.389Z,99273.28
2022-08-07T08:20:17.570Z,99270.28
2022-08-07T08:23:08.213Z,99264.84
2022-08-07T08:25:56.982Z,99273.63
2022-08-07T08:28:38.032Z,99266.09
2022-08-07T08:31:14.792Z,99267.97
2022-08-07T08:33:49.584Z,99267.22
2022-08-07T08:36:30.022Z,99259.34
2022-08-07T08:39:01.978Z,99265.13
2022-08-07T08:41:58.386Z,99264.97
2022-08-07T08:44:44.979Z,99256.41
2022-08-07T08:47:52.651Z,99261.94
2022-08-07T08:50:39.272Z,99250.88
2022-08-07T08:53:26.450Z,99252.84
2022-08-07T08:56:01.145Z,99263.34
2022-08-07T08:58:43.842Z,99255.66
2022-08-07T09:01:18.506Z,99253.31
2022-08-07T09:04:03.991Z,99253.16
2022-08-07T09:07:02.341Z,99252.84
2022-08-07T09:10:00.927Z,99258.81
2022-08-07T09:12:52.969Z,99256.19
2022-08-07T09:16:22.376Z,99257.19
2022-08-07T09:18:32.618Z,99258.69
2022-08-07T09:21:58.320Z,99255.28
2022-08-07T09:24:55.522Z,99252.38
2022-08-07T09:27:31.113Z,99263.13
2022-08-07T09:30:09.385Z,99263.03
2022-08-07T09:32:51.098Z,99258.91
2022-08-07T09:36:02.675Z,99259.50
2022-08-07T09:38:57.159Z,99250.44
2022-08-07T09:42:03.023Z,99249.22
2022-08-07T09:47:26.146Z,99257.91
2022-08-07T09:48:01.140Z,99251.28
2022-08-07T09:50:51.439Z,99247.81
2022-08-07T09:53:22.452Z,99243.94
2022-08-07T09:56:19.926Z,99250.56
2022-08-07T09:59:14.977Z,99228.91
2022-08-07T10:02:40.625Z,99227.03
2022-08-07T10:06:00.067Z,99218.94
2022-08-07T10:08:51.338Z,99223.97
2022-08-07T10:12:02.013Z,99228.66
2022-08-07T10:14:35.266Z,99231.06
2022-08-07T10:17:21.781Z,99219.31
2022-08-07T10:20:14.826Z,99218.59
2022-08-07T10:23:01.973Z,99217.56
2022-08-07T10:26:00.569Z,99219.13
2022-08-07T10:28:37.395Z,99215.81
2022-08-07T10:31:49.974Z,99215.13
2022-08-07T10:34:42.876Z,99206.38
2022-08-07T10:37:59.960Z,99197.34
2022-08-07T10:40:24.642Z,99205.66
2022-08-07T10:43:36.001Z,99203.50
2022-08-07T10:46:19.501Z,99192.84
2022-08-07T10:49:10.240Z,99183.88
2022-08-07T10:52:02.234Z,99182.06
2022-08-07T10:54:53.543Z,99181.09
2022-08-07T10:58:11.177Z,99179.63
2022-08-07T11:00:56.457Z,99183.47
2022-08-07T11:03:37.867Z,99180.13
2022-08-07T11:06:26.670Z,99181.19
2022-08-07T11:09:02.230Z,99173.97
2022-08-07T11:11:35.876Z,99174.66
2022-08-07T11:14:57.126Z,99169.53
2022-08-07T11:17:43.607Z,99161.63
2022-08-07T11:20:48.262Z,99153.47
2022-08-07T11:24:00.343Z,99162.78
2022-08-07T11:28:00.924Z,99141.50
2022-08-07T11:30:18.373Z,99141.75
2022-08-07T11:32:46.088Z,99139.88
2022-08-07T11:36:10.987Z,99144.78
2022-08-07T11:39:19.570Z,99135.38
2022-08-07T11:42:03.200Z,99135.50
2022-08-07T11:45:35.271Z,99138.19
2022-08-07T11:49:27.784Z,99126.13
2022-08-07T11:52:35.735Z,99130.34
2022-08-07T11:55:19.025Z,99130.34
2022-08-07T11:58:57.073Z,99132.13
2022-08-07T12:02:30.143Z,99134.56
2022-08-07T12:05:53.988Z,99127.13
2022-08-07T12:09:23.630Z,99133.34
2022-08-07T12:12:47.821Z,99120.06
2022-08-07T12:15:46.171Z,99120.94
2022-08-07T12:18:29.647Z,99120.81
2022-08-07T12:21:55.648Z,99112.53
2022-08-07T12:25:07.778Z,99106.41
2022-08-07T12:28:31.586Z,99106.88
2022-08-07T12:32:03.851Z,99114.44
2022-08-07T12:35:29.293Z,99109.34
2022-08-07T12:38:59.947Z,99104.16
2022-08-07T12:41:42.879Z,99094.94
2022-08-07T12:44:18.330Z,99107.03
2022-08-07T12:47:45.049Z,99094.72
2022-08-07T12:50:39.509Z,99111.59
2022-08-07T12:53:28.476Z,99106.59
2022-08-07T12:56:39.550Z,99105.78
2022-08-07T12:59:08.657Z,99102.41
2022-08-07T13:02:44.032Z,99106.25
2022-08-07T13:06:04.873Z,99099.53
2022-08-07T13:10:20.115Z,99089.97
2022-08-07T13:13:06.129Z,99080.41
2022-08-07T13:16:29.458Z,99086.19
2022-08-07T13:19:53.280Z,99071.66
2022-08-07T13:24:01.138Z,99070.88
2022-08-07T13:26:15.995Z,99067.13
2022-08-07T13:28:58.891Z,99070.44
2022-08-07T13:31:45.913Z,99071.44
2022-08-07T13:34:48.595Z,99056.19
2022-08-07T13:37:58.496Z,99060.63
2022-08-07T13:40:42.239Z,99051.41
2022-08-07T13:43:16.051Z,99065.22
2022-08-07T13:46:12.319Z,99050.34
2022-08-07T13:48:39.130Z,99053.72
2022-08-07T13:51:27.165Z,99040.44
2022-08-07T13:54:01.937Z,99038.84
2022-08-07T13:56:36.238Z,99022.09
2022-08-07T13:59:25.685Z,99027.41
2022-08-07T14:02:10.310Z,99018.38
2022-08-07T14:04:48.924Z,99022.19
2022-08-07T14:07:27.303Z,99030.22
2022-08-07T14:10:12.451Z,99018.03
2022-08-07T14:12:55.681Z,99019.44
2022-08-07T14:15:42.245Z,99013.09
2022-08-07T14:18:30.219Z,99016.91
2022-08-07T14:22:02.519Z,99011.50
2022-08-07T14:24:28.385Z,99020.47
2022-08-07T14:28:09.385Z,99014.69
2022-08-07T14:30:08.146Z,99016.31
2022-08-07T14:32:47.820Z,99015.25
2022-08-07T14:35:44.914Z,99002.41
2022-08-07T14:38:26.231Z,98996.06
2022-08-07T14:41:33.868Z,99000.16
2022-08-07T14:45:22.502Z,99001.88
2022-08-07T14:48:48.396Z,98989.09
2022-08-07T14:52:13.749Z,98992.47
2022-08-07T14:54:44.778Z,98986.47
2022-08-07T14:58:09.266Z,98995.53
2022-08-07T15:00:52.925Z,98992.06
2022-08-07T15:04:16.941Z,98990.63
2022-08-07T15:07:51.354Z,98982.00
2022-08-07T15:10:26.943Z,98980.84
2022-08-07T15:13:11.346Z,98984.47
2022-08-07T15:18:45.390Z,98980.94
2022-08-07T15:21:45.035Z,98975.66
2022-08-07T15:27:23.040Z,98975.78
2022-08-07T15:33:42.674Z,98972.34
2022-08-07T15:36:10.802Z,98964.03
2022-08-07T15:45:55.467Z,98960.91
2022-08-07T15:48:31.823Z,98960.81
2022-08-07T15:51:08.574Z,98955.28
2022-08-07T15:53:53.313Z,98955.59
2022-08-07T15:56:37.478Z,98957.59
2022-08-07T15:59:16.277Z,98944.66
2022-08-07T16:02:02.582Z,98952.47
2022-08-07T16:04:33.657Z,98956.16
2022-08-07T16:08:33.089Z,98947.88
2022-08-07T16:10:22.099Z,98944.13
2022-08-07T16:13:17.649Z,98941.00
2022-08-07T16:16:48.493Z,98937.16
2022-08-07T16:20:34.054Z,98931.50
2022-08-07T16:24:09.104Z,98923.63
2022-08-07T16:27:18.083Z,98916.03
2022-08-07T16:30:30.511Z,98911.47
2022-08-07T16:34:02.320Z,98916.66
2022-08-07T16:36:20.059Z,98916.28
2022-08-07T16:39:05.947Z,98915.03
2022-08-07T16:42:12.797Z,98908.81
2022-08-07T16:45:15.202Z,98915.03
2022-08-07T16:48:37.686Z,98931.72
2022-08-07T16:51:53.980Z,98920.72
2022-08-07T16:54:54.874Z,98919.56
2022-08-07T16:58:01.686Z,98917.41
2022-08-07T17:00:49.479Z,98907.50
2022-08-07T17:03:58.105Z,98905.38
2022-08-07T17:07:02.912Z,98907.09
2022-08-07T17:10:07.153Z,98909.84
2022-08-07T17:12:44.293Z,98911.09
2022-08-07T17:15:15.605Z,98904.03
2022-08-07T17:17:46.921Z,98912.09
2022-08-07T17:20:35.482Z,98908.31
2022-08-07T17:23:22.775Z,98903.16
2022-08-07T17:26:23.632Z,98915.03
2022-08-07T17:28:58.626Z,98920.59
2022-08-07T17:31:44.166Z,98919.28
2022-08-07T17:34:40.907Z,98929.69
2022-08-07T17:38:09.595Z,98932.28
2022-08-07T17:42:00.585Z,98922.84
2022-08-07T17:44:50.390Z,98927.13
2022-08-07T17:48:31.127Z,98931.84
2022-08-07T17:52:01.191Z,98928.81
2022-08-07T17:55:55.689Z,98932.13
2022-08-07T17:58:30.398Z,98928.00
2022-08-07T18:01:56.776Z,98934.09
2022-08-07T18:05:25.794Z,98931.28
2022-08-07T18:08:32.697Z,98936.25
2022-08-07T18:12:16.110Z,98934.81
2022-08-07T18:15:44.653Z,98935.00
2022-08-07T18:21:06.352Z,98936.16
2022-08-07T18:22:28.952Z,98942.84
2022-08-07T18:25:23.791Z,98944.28
2022-08-07T18:28:34.239Z,98949.59
2022-08-07T18:31:18.480Z,98958.22
2022-08-07T18:34:35.878Z,98958.47
2022-08-07T18:38:58.724Z,98951.13
2022-08-07T18:41:16.994Z,98968.56
2022-08-07T18:44:09.050Z,98976.78
2022-08-07T18:47:22.652Z,98976.00
2022-08-07T18:50:39.128Z,98981.53
2022-08-07T18:53:39.252Z,98989.34
2022-08-07T18:56:13.290Z,98988.75
2022-08-07T18:58:55.317Z,98993.81
2022-08-07T19:02:34.196Z,98997.75
2022-08-07T19:04:57.907Z,98997.63
2022-08-07T19:07:51.697Z,99001.53
2022-08-07T19:10:32.001Z,99011.25
2022-08-07T19:13:33.581Z,99015.69
2022-08-07T19:17:04.706Z,99021.03
2022-08-07T19:19:46.060Z,99020.44
2022-08-07T19:22:53.975Z,99020.00
2022-08-07T19:26:23.075Z,99023.56
2022-08-07T19:31:02.941Z,99030.13
2022-08-07T19:32:18.670Z,99036.19
2022-08-07T19:34:55.225Z,99037.28
2022-08-07T19:37:24.270Z,99041.75
2022-08-07T19:40:14.196Z,99040.75
2022-08-07T19:42:43.152Z,99033.81
2022-08-07T19:46:10.075Z,99036.59
2022-08-07T19:49:57.111Z,99035.22
2022-08-07T19:54:32.449Z,99032.09
2022-08-07T19:57:50.884Z,99049.19
2022-08-07T19:59:54.428Z,99041.88
2022-08-07T20:03:34.751Z,99047.41
2022-08-07T20:06:06.164Z,99049.97
2022-08-07T20:10:35.527Z,99042.31
2022-08-07T20:12:34.406Z,99043.69
2022-08-07T20:15:58.866Z,99039.66
2022-08-07T20:19:25.033Z,99041.25
2022-08-07T20:22:00.267Z,99036.91
2022-08-07T20:25:18.371Z,99042.53
2022-08-07T20:27:58.545Z,99031.50
2022-08-07T20:30:36.511Z,99038.50
2022-08-07T20:33:08.909Z,99032.19
2022-08-07T20:35:54.394Z,99026.94
2022-08-07T20:38:29.450Z,99034.47
2022-08-07T20:41:03.895Z,99027.16
2022-08-07T20:43:35.486Z,99026.94
2022-08-07T20:46:28.666Z,99033.09
2022-08-07T20:49:58.423Z,99028.94
2022-08-07T20:51:50.324Z,99027.09
2022-08-07T20:54:29.615Z,99033.16
2022-08-07T20:57:05.122Z,99035.22
2022-08-07T21:00:05.036Z,99038.56
2022-08-07T21:02:54.521Z,99030.53
2022-08-07T21:05:51.298Z,99030.44
2022-08-07T21:09:01.067Z,99037.38
2022-08-07T21:11:49.978Z,99034.91
2022-08-07T21:14:32.135Z,99035.84
2022-08-07T21:18:04.070Z,99038.13
2022-08-07T21:20:26.862Z,99037.06
2022-08-07T21:23:08.656Z,99029.41
2022-08-07T21:26:12.225Z,99038.06
2022-08-07T21:28:59.949Z,99036.91
2022-08-07T21:32:44.178Z,99034.91
2022-08-07T21:35:01.031Z,99040.69
2022-08-07T21:37:57.982Z,99038.53
2022-08-07T21:40:47.522Z,99035.91
2022-08-07T21:43:25.482Z,99043.47
2022-08-07T21:46:40.162Z,99040.72
2022-08-07T21:50:02.005Z,99046.34
2022-08-07T21:52:44.506Z,99051.72
2022-08-07T21:56:35.839Z,99050.94
2022-08-07T22:00:04.970Z,99063.50
2022-08-07T22:03:31.452Z,99073.59
2022-08-07T22:06:55.854Z,99075.78
2022-08-07T22:09:31.520Z,99073.00
2022-08-07T22:12:15.330Z,99076.56
2022-08-07T22:16:42.301Z,99080.03
2022-08-07T22:19:30.011Z,99084.94
2022-08-07T22:22:36.724Z,99075.81
2022-08-07T22:26:05.916Z,99066.31
2022-08-07T22:29:37.838Z,99070.34
2022-08-07T22:33:11.988Z,99062.66
2022-08-07T22:36:38.782Z,99066.16
2022-08-07T22:40:05.160Z,99073.72
2022-08-07T22:43:31.480Z,99073.72
2022-08-07T22:47:06.470Z,99074.63
2022-08-07T22:50:33.640Z,99075.75
2022-08-07T22:54:07.050Z,99079.66
2022-08-07T22:56:48.740Z,99074.22
2022-08-07T22:59:34.568Z,99080.16
2022-08-07T23:02:17.400Z,99076.78
2022-08-07T23:06:15.277Z,99074.69
2022-08-07T23:08:46.208Z,99077.03
2022-08-07T23:11:44.161Z,99079.53
2022-08-07T23:14:32.548Z,99073.41
2022-08-07T23:17:37.858Z,99082.88
2022-08-07T23:20:51.406Z,99074.13
2022-08-07T23:24:05.740Z,99080.59
2022-08-07T23:27:12.614Z,99081.06
2022-08-07T23:30:38.838Z,99084.97
2022-08-07T23:34:36.142Z,99086.47
2022-08-07T23:37:19.085Z,99082.00
2022-08-07T23:39:56.677Z,99084.22
2022-08-07T23:43:07.646Z,99086.22
2022-08-07T23:46:23.931Z,99075.56
2022-08-07T23:49:49.854Z,99071.03
2022-08-07T23:53:11.795Z,99076.09
2022-08-07T23:55:52.026Z,99081.03
2022-08-07T23:58:56.174Z,99080.31
